sensor_id;sensor_type;location;lat;lon;timestamp;pressure;altitude;pressure_sealevel;temperature;humidity
69198;BME280;56311;50.298;8.514;2022-08-19T00:01:25;97452.00;;;18.34;97.10
69198;BME280;56311;50.298;8.514;2022-08-19T00:03:56;97453.72;;;18.26;99.27
69198;BME280;56311;50.298;8.514;2022-08-19T00:06:23;97460.13;;;18.30;98.54
69198;BME280;56311;50.298;8.514;2022-08-19T00:08:50;97458.50;;;18.29;98.66
69198;BME280;56311;50.298;8.514;2022-08-19T00:11:18;97457.84;;;18.32;99.33
69198;BME280;56311;50.298;8.514;2022-08-19T00:13:51;97462.03;;;18.29;99.86
69198;BME280;56311;50.298;8.514;2022-08-19T00:16:18;97468.31;;;18.30;99.21
69198;BME280;56311;50.298;8.514;2022-08-19T00:18:53;97472.19;;;18.29;98.58
69198;BME280;56311;50.298;8.514;2022-08-19T00:21:22;97475.28;;;18.27;98.61
69198;BME280;56311;50.298;8.514;2022-08-19T00:23:49;97473.22;;;18.24;98.39
69198;BME280;56311;50.298;8.514;2022-08-19T00:26:16;97461.94;;;18.26;97.04
69198;BME280;56311;50.298;8.514;2022-08-19T00:28:43;97458.97;;;18.31;94.53
69198;BME280;56311;50.298;8.514;2022-08-19T00:31:10;97453.34;;;18.40;93.22
69198;BME280;56311;50.298;8.514;2022-08-19T00:33:37;97453.91;;;18.45;91.77
69198;BME280;56311;50.298;8.514;2022-08-19T00:36:07;97452.16;;;18.53;90.64
69198;BME280;56311;50.298;8.514;2022-08-19T00:38:37;97447.56;;;18.57;92.63
69198;BME280;56311;50.298;8.514;2022-08-19T00:41:12;97446.88;;;18.60;94.42
69198;BME280;56311;50.298;8.514;2022-08-19T00:43:39;97440.84;;;18.55;91.81
69198;BME280;56311;50.298;8.514;2022-08-19T00:46:07;97442.25;;;18.49;92.55
69198;BME280;56311;50.298;8.514;2022-08-19T00:48:35;97433.94;;;18.45;91.86
69198;BME280;56311;50.298;8.514;2022-08-19T00:51:05;97427.88;;;18.52;91.79
69198;BME280;56311;50.298;8.514;2022-08-19T00:53:33;97426.72;;;18.53;91.34
69198;BME280;56311;50.298;8.514;2022-08-19T00:56:02;97428.75;;;18.56;87.50
69198;BME280;56311;50.298;8.514;2022-08-19T00:58:32;97432.31;;;18.56;88.42
69198;BME280;56311;50.298;8.514;2022-08-19T01:01:00;97431.94;;;18.58;90.94
69198;BME280;56311;50.298;8.514;2022-08-19T01:03:28;97427.16;;;18.55;89.71
69198;BME280;56311;50.298;8.514;2022-08-19T01:06:17;97426.00;;;18.56;86.62
69198;BME280;56311;50.298;8.514;2022-08-19T01:08:46;97412.16;;;18.65;86.25
69198;BME280;56311;50.298;8.514;2022-08-19T01:11:15;97414.91;;;18.65;85.69
69198;BME280;56311;50.298;8.514;2022-08-19T01:13:43;97404.66;;;18.61;85.44
69198;BME280;56311;50.298;8.514;2022-08-19T01:16:17;97410.59;;;18.64;86.19
69198;BME280;56311;50.298;8.514;2022-08-19T01:18:45;97419.69;;;18.68;86.32
69198;BME280;56311;50.298;8.514;2022-08-19T01:21:20;97408.72;;;18.68;85.91
69198;BME280;56311;50.298;8.514;2022-08-19T01:23:50;97397.00;;;18.67;85.33
69198;BME280;56311;50.298;8.514;2022-08-19T01:26:19;97405.91;;;18.64;85.55
69198;BME280;56311;50.298;8.514;2022-08-19T01:28:48;97407.22;;;18.70;86.03
69198;BME280;56311;50.298;8.514;2022-08-19T01:31:20;97405.91;;;18.64;85.41
69198;BME280;56311;50.298;8.514;2022-08-19T01:33:54;97400.78;;;18.63;85.23
69198;BME280;56311;50.298;8.514;2022-08-19T01:36:24;62402.38;;;-147.88;100.00
69198;BME280;56311;50.298;8.514;2022-08-19T01:38:54;97397.94;;;18.59;85.25
69198;BME280;56311;50.298;8.514;2022-08-19T01:41:21;97396.25;;;18.54;85.58
69198;BME280;56311;50.298;8.514;2022-08-19T01:43:50;97399.66;;;18.51;85.55
69198;BME280;56311;50.298;8.514;2022-08-19T01:46:37;97397.38;;;18.53;85.48
69198;BME280;56311;50.298;8.514;2022-08-19T01:49:04;97397.38;;;18.53;85.48
69198;BME280;56311;50.298;8.514;2022-08-19T01:51:31;97396.81;;;18.48;86.13
69198;BME280;56311;50.298;8.514;2022-08-19T01:54:07;97395.25;;;18.47;86.63
69198;BME280;56311;50.298;8.514;2022-08-19T01:56:34;97397.78;;;18.39;86.87
69198;BME280;56311;50.298;8.514;2022-08-19T01:59:03;97397.34;;;18.37;86.64
69198;BME280;56311;50.298;8.514;2022-08-19T02:01:31;97397.69;;;18.36;87.48
69198;BME280;56311;50.298;8.514;2022-08-19T02:03:59;97402.63;;;18.30;87.78
69198;BME280;56311;50.298;8.514;2022-08-19T02:06:28;97405.59;;;18.25;87.80
69198;BME280;56311;50.298;8.514;2022-08-19T02:08:55;97403.53;;;18.22;88.52
69198;BME280;56311;50.298;8.514;2022-08-19T02:11:27;97397.38;;;18.25;88.33
69198;BME280;56311;50.298;8.514;2022-08-19T02:13:55;97394.75;;;18.16;89.17
69198;BME280;56311;50.298;8.514;2022-08-19T02:16:22;97391.81;;;18.09;90.80
69198;BME280;56311;50.298;8.514;2022-08-19T02:18:51;97407.94;;;17.98;91.88
69198;BME280;56311;50.298;8.514;2022-08-19T02:21:19;97402.44;;;17.98;90.75
69198;BME280;56311;50.298;8.514;2022-08-19T02:23:48;97410.66;;;17.98;90.28
69198;BME280;56311;50.298;8.514;2022-08-19T02:26:15;97411.47;;;17.98;90.33
69198;BME280;56311;50.298;8.514;2022-08-19T02:28:44;97417.72;;;17.99;90.04
69198;BME280;56311;50.298;8.514;2022-08-19T02:31:12;97418.09;;;17.97;90.81
69198;BME280;56311;50.298;8.514;2022-08-19T02:33:41;97426.16;;;17.94;90.22
69198;BME280;56311;50.298;8.514;2022-08-19T02:36:10;97429.38;;;17.96;90.02
69198;BME280;56311;50.298;8.514;2022-08-19T02:38:38;97436.00;;;17.95;90.32
69198;BME280;56311;50.298;8.514;2022-08-19T02:41:15;97420.38;;;17.95;89.65
69198;BME280;56311;50.298;8.514;2022-08-19T02:43:44;97434.03;;;17.95;90.22
69198;BME280;56311;50.298;8.514;2022-08-19T02:46:33;97431.63;;;17.94;90.28
69198;BME280;56311;50.298;8.514;2022-08-19T02:49:06;97437.88;;;17.94;90.10
69198;BME280;56311;50.298;8.514;2022-08-19T02:51:37;97428.56;;;17.95;90.36
69198;BME280;56311;50.298;8.514;2022-08-19T02:54:06;97428.56;;;17.95;90.26
69198;BME280;56311;50.298;8.514;2022-08-19T02:56:34;97433.25;;;17.95;90.40
69198;BME280;56311;50.298;8.514;2022-08-19T02:59:04;97426.50;;;17.92;90.54
69198;BME280;56311;50.298;8.514;2022-08-19T03:01:38;97431.63;;;17.94;91.31
69198;BME280;56311;50.298;8.514;2022-08-19T03:04:08;97427.53;;;17.88;91.57
69198;BME280;56311;50.298;8.514;2022-08-19T03:06:36;97426.63;;;17.83;92.05
69198;BME280;56311;50.298;8.514;2022-08-19T03:09:04;97428.44;;;17.92;92.03
69198;BME280;56311;50.298;8.514;2022-08-19T03:11:33;97442.34;;;17.87;91.66
69198;BME280;56311;50.298;8.514;2022-08-19T03:14:03;97433.34;;;17.86;92.02
69198;BME280;56311;50.298;8.514;2022-08-19T03:16:32;97435.28;;;17.86;91.98
69198;BME280;56311;50.298;8.514;2022-08-19T03:19:01;62402.38;;;-147.88;100.00
69198;BME280;56311;50.298;8.514;2022-08-19T03:21:30;62402.38;;;-147.88;100.00
69198;BME280;56311;50.298;8.514;2022-08-19T03:24:00;62402.38;;;-147.88;100.00
69198;BME280;56311;50.298;8.514;2022-08-19T03:26:27;62402.38;;;-147.88;100.00
69198;BME280;56311;50.298;8.514;2022-08-19T03:28:54;62402.38;;;-147.88;100.00
69198;BME280;56311;50.298;8.514;2022-08-19T03:31:26;62402.38;;;-147.88;100.00
69198;BME280;56311;50.298;8.514;2022-08-19T03:34:15;62402.38;;;-147.88;100.00
69198;BME280;56311;50.298;8.514;2022-08-19T03:36:45;62402.38;;;-147.88;100.00
69198;BME280;56311;50.298;8.514;2022-08-19T03:39:13;97435.28;;;17.86;91.98
69198;BME280;56311;50.298;8.514;2022-08-19T03:41:41;97441.22;;;17.75;93.48
69198;BME280;56311;50.298;8.514;2022-08-19T03:44:12;97439.28;;;17.76;92.79
69198;BME280;56311;50.298;8.514;2022-08-19T03:46:46;97437.34;;;17.76;93.24
69198;BME280;56311;50.298;8.514;2022-08-19T03:49:14;97448.28;;;17.76;93.03
69198;BME280;56311;50.298;8.514;2022-08-19T03:51:44;97435.72;;;17.75;93.39
69198;BME280;56311;50.298;8.514;2022-08-19T03:54:13;97438.03;;;17.73;93.66
69198;BME280;56311;50.298;8.514;2022-08-19T03:56:42;97438.03;;;17.73;93.66
69198;BME280;56311;50.298;8.514;2022-08-19T03:59:12;97455.34;;;17.77;94.06
69198;BME280;56311;50.298;8.514;2022-08-19T04:01:40;97450.34;;;17.79;93.49
69198;BME280;56311;50.298;8.514;2022-08-19T04:04:09;97447.25;;;17.81;93.49
69198;BME280;56311;50.298;8.514;2022-08-19T04:06:37;97446.34;;;17.77;93.61
69198;BME280;56311;50.298;8.514;2022-08-19T04:09:08;62402.38;;;-147.88;100.00
69198;BME280;56311;50.298;8.514;2022-08-19T04:11:38;97445.53;;;17.76;94.30
69198;BME280;56311;50.298;8.514;2022-08-19T04:14:12;97447.50;;;17.76;94.01
69198;BME280;56311;50.298;8.514;2022-08-19T04:16:41;97451.00;;;17.76;94.74
69198;BME280;56311;50.298;8.514;2022-08-19T04:19:12;97457.84;;;17.70;95.21
69198;BME280;56311;50.298;8.514;2022-08-19T04:21:40;97450.13;;;17.72;94.75
69198;BME280;56311;50.298;8.514;2022-08-19T04:24:09;97449.75;;;17.74;94.56
69198;BME280;56311;50.298;8.514;2022-08-19T04:26:36;97454.88;;;17.75;94.70
69198;BME280;56311;50.298;8.514;2022-08-19T04:29:06;97459.22;;;17.76;94.79
69198;BME280;56311;50.298;8.514;2022-08-19T04:31:38;97457.63;;;17.75;94.83
69198;BME280;56311;50.298;8.514;2022-08-19T04:34:07;97443.81;;;17.72;94.63
69198;BME280;56311;50.298;8.514;2022-08-19T04:36:37;97445.78;;;17.71;94.69
69198;BME280;56311;50.298;8.514;2022-08-19T04:39:07;97454.00;;;17.71;95.80
69198;BME280;56311;50.298;8.514;2022-08-19T04:41:34;97443.59;;;17.64;96.59
69198;BME280;56311;50.298;8.514;2022-08-19T04:44:20;97456.84;;;17.62;97.20
69198;BME280;56311;50.298;8.514;2022-08-19T04:49:18;97463.09;;;17.63;98.00
69198;BME280;56311;50.298;8.514;2022-08-19T04:51:47;97455.47;;;17.56;98.62
69198;BME280;56311;50.298;8.514;2022-08-19T04:54:14;97460.59;;;17.58;97.88
69198;BME280;56311;50.298;8.514;2022-08-19T04:57:02;97460.25;;;17.59;97.22
69198;BME280;56311;50.298;8.514;2022-08-19T04:59:30;97456.38;;;17.60;98.05
69198;BME280;56311;50.298;8.514;2022-08-19T05:01:57;97449.41;;;17.63;97.35
69198;BME280;56311;50.298;8.514;2022-08-19T05:04:24;97449.19;;;17.68;97.61
69198;BME280;56311;50.298;8.514;2022-08-19T05:06:52;97456.38;;;17.73;97.50
69198;BME280;56311;50.298;8.514;2022-08-19T05:09:25;97462.66;;;17.73;96.27
69198;BME280;56311;50.298;8.514;2022-08-19T05:11:53;97468.69;;;17.79;95.93
69198;BME280;56311;50.298;8.514;2022-08-19T05:14:20;97479.84;;;17.86;95.94
69198;BME280;56311;50.298;8.514;2022-08-19T05:16:48;97484.75;;;17.93;95.80
69198;BME280;56311;50.298;8.514;2022-08-19T05:19:15;97479.53;;;18.00;96.16
69198;BME280;56311;50.298;8.514;2022-08-19T05:22:02;97473.50;;;18.07;95.86
69198;BME280;56311;50.298;8.514;2022-08-19T05:24:47;97475.06;;;18.08;94.35
69198;BME280;56311;50.298;8.514;2022-08-19T05:27:35;97469.50;;;18.17;93.75
69198;BME280;56311;50.298;8.514;2022-08-19T05:30:03;97459.91;;;18.23;93.13
69198;BME280;56311;50.298;8.514;2022-08-19T05:32:30;97462.38;;;18.28;92.14
69198;BME280;56311;50.298;8.514;2022-08-19T05:34:57;97461.09;;;18.38;92.09
69198;BME280;56311;50.298;8.514;2022-08-19T05:37:26;97461.00;;;18.47;91.68
69198;BME280;56311;50.298;8.514;2022-08-19T05:39:54;97461.81;;;18.63;90.64
69198;BME280;56311;50.298;8.514;2022-08-19T05:42:22;97464.50;;;18.75;90.09
69198;BME280;56311;50.298;8.514;2022-08-19T05:44:50;97463.25;;;18.85;89.12
69198;BME280;56311;50.298;8.514;2022-08-19T05:47:18;97469.75;;;18.81;88.69
69198;BME280;56311;50.298;8.514;2022-08-19T05:49:46;62402.38;;;-147.88;100.00
69198;BME280;56311;50.298;8.514;2022-08-19T05:52:15;62402.38;;;-147.88;100.00
69198;BME280;56311;50.298;8.514;2022-08-19T05:54:46;97469.75;;;18.81;88.69
69198;BME280;56311;50.298;8.514;2022-08-19T05:57:17;97475.16;;;19.05;86.82
69198;BME280;56311;50.298;8.514;2022-08-19T05:59:44;97481.56;;;19.25;86.62
69198;BME280;56311;50.298;8.514;2022-08-19T06:02:14;97483.25;;;19.30;85.54
69198;BME280;56311;50.298;8.514;2022-08-19T06:04:41;97483.63;;;19.45;85.50
69198;BME280;56311;50.298;8.514;2022-08-19T06:07:11;97486.72;;;19.59;84.78
69198;BME280;56311;50.298;8.514;2022-08-19T06:09:39;97483.34;;;19.66;83.95
69198;BME280;56311;50.298;8.514;2022-08-19T06:12:10;97488.69;;;19.75;83.45
69198;BME280;56311;50.298;8.514;2022-08-19T06:14:37;97482.91;;;19.80;82.60
69198;BME280;56311;50.298;8.514;2022-08-19T06:17:08;97487.97;;;19.94;83.09
69198;BME280;56311;50.298;8.514;2022-08-19T06:19:35;97487.09;;;19.90;82.83
69198;BME280;56311;50.298;8.514;2022-08-19T06:22:07;97493.34;;;19.90;82.30
69198;BME280;56311;50.298;8.514;2022-08-19T06:24:34;97495.59;;;19.84;81.60
69198;BME280;56311;50.298;8.514;2022-08-19T06:27:03;97503.47;;;19.86;82.24
69198;BME280;56311;50.298;8.514;2022-08-19T06:29:34;97515.41;;;19.94;80.79
69198;BME280;56311;50.298;8.514;2022-08-19T06:32:02;97513.84;;;19.93;81.00
69198;BME280;56311;50.298;8.514;2022-08-19T06:34:32;97529.66;;;19.83;81.98
69198;BME280;56311;50.298;8.514;2022-08-19T06:37:01;97534.53;;;19.90;81.21
69198;BME280;56311;50.298;8.514;2022-08-19T06:39:30;97537.63;;;20.04;81.08
69198;BME280;56311;50.298;8.514;2022-08-19T06:42:01;97537.28;;;20.06;80.94
69198;BME280;56311;50.298;8.514;2022-08-19T06:44:34;97531.34;;;20.04;80.24
69198;BME280;56311;50.298;8.514;2022-08-19T06:47:11;97534.88;;;20.20;80.49
69198;BME280;56311;50.298;8.514;2022-08-19T06:49:41;97531.00;;;20.22;79.43
69198;BME280;56311;50.298;8.514;2022-08-19T06:52:11;97542.34;;;20.40;80.02
69198;BME280;56311;50.298;8.514;2022-08-19T06:54:40;97546.84;;;20.48;78.58
69198;BME280;56311;50.298;8.514;2022-08-19T06:57:22;97546.84;;;20.48;78.58
69198;BME280;56311;50.298;8.514;2022-08-19T06:59:51;97545.25;;;20.63;77.22
69198;BME280;56311;50.298;8.514;2022-08-19T07:02:19;97534.41;;;20.70;77.06
69198;BME280;56311;50.298;8.514;2022-08-19T07:04:47;97540.41;;;20.76;75.34
69198;BME280;56311;50.298;8.514;2022-08-19T07:07:19;97535.38;;;20.78;75.56
69198;BME280;56311;50.298;8.514;2022-08-19T07:09:50;97542.03;;;20.77;74.91
69198;BME280;56311;50.298;8.514;2022-08-19T07:12:27;97552.09;;;20.89;74.73
69198;BME280;56311;50.298;8.514;2022-08-19T07:14:58;97536.19;;;20.98;74.32
69198;BME280;56311;50.298;8.514;2022-08-19T07:17:25;97541.59;;;21.14;74.04
69198;BME280;56311;50.298;8.514;2022-08-19T07:19:53;97526.09;;;21.06;73.41
69198;BME280;56311;50.298;8.514;2022-08-19T07:22:22;97537.06;;;21.25;72.96
69198;BME280;56311;50.298;8.514;2022-08-19T07:24:52;97542.88;;;21.20;72.27
69198;BME280;56311;50.298;8.514;2022-08-19T07:27:19;97545.97;;;21.38;71.19
69198;BME280;56311;50.298;8.514;2022-08-19T07:29:52;97546.47;;;21.44;70.89
69198;BME280;56311;50.298;8.514;2022-08-19T07:32:24;97551.25;;;21.67;70.41
69198;BME280;56311;50.298;8.514;2022-08-19T07:34:55;97548.19;;;21.72;69.41
69198;BME280;56311;50.298;8.514;2022-08-19T07:37:23;97548.97;;;21.72;69.79
69198;BME280;56311;50.298;8.514;2022-08-19T07:39:59;97551.13;;;21.83;69.21
69198;BME280;56311;50.298;8.514;2022-08-19T07:42:27;97551.13;;;21.83;69.21
69198;BME280;56311;50.298;8.514;2022-08-19T07:44:57;97541.34;;;21.42;70.14
69198;BME280;56311;50.298;8.514;2022-08-19T07:47:27;97541.47;;;21.50;70.39
69198;BME280;56311;50.298;8.514;2022-08-19T07:50:15;97539.16;;;21.71;69.73
69198;BME280;56311;50.298;8.514;2022-08-19T07:52:44;97545.81;;;21.70;68.83
69198;BME280;56311;50.298;8.514;2022-08-19T07:55:16;97550.53;;;21.50;69.47
69198;BME280;56311;50.298;8.514;2022-08-19T07:58:04;97554.34;;;21.65;69.64
69198;BME280;56311;50.298;8.514;2022-08-19T08:00:32;97543.66;;;21.60;68.91
69198;BME280;56311;50.298;8.514;2022-08-19T08:03:00;97549.72;;;21.69;69.34
69198;BME280;56311;50.298;8.514;2022-08-19T08:05:29;97549.03;;;21.99;68.39
69198;BME280;56311;50.298;8.514;2022-08-19T08:08:15;97548.84;;;22.12;67.33
69198;BME280;56311;50.298;8.514;2022-08-19T08:11:15;97564.16;;;22.36;66.58
69198;BME280;56311;50.298;8.514;2022-08-19T08:13:45;97564.34;;;21.97;67.14
69198;BME280;56311;50.298;8.514;2022-08-19T08:16:27;97557.41;;;22.06;67.04
69198;BME280;56311;50.298;8.514;2022-08-19T08:19:04;97558.84;;;21.97;67.90
69198;BME280;56311;50.298;8.514;2022-08-19T08:21:40;97559.06;;;21.88;67.82
69198;BME280;56311;50.298;8.514;2022-08-19T08:24:09;97560.63;;;22.12;67.54
69198;BME280;56311;50.298;8.514;2022-08-19T08:26:36;97564.06;;;22.29;66.73
69198;BME280;56311;50.298;8.514;2022-08-19T08:29:12;97570.28;;;22.25;67.02
69198;BME280;56311;50.298;8.514;2022-08-19T08:31:41;97570.63;;;21.97;67.37
69198;BME280;56311;50.298;8.514;2022-08-19T08:34:12;97576.31;;;22.08;67.87
69198;BME280;56311;50.298;8.514;2022-08-19T08:36:43;97576.78;;;22.37;67.39
69198;BME280;56311;50.298;8.514;2022-08-19T08:39:13;97589.91;;;22.70;66.18
69198;BME280;56311;50.298;8.514;2022-08-19T08:41:49;97580.75;;;22.66;66.10
69198;BME280;56311;50.298;8.514;2022-08-19T08:44:21;97590.03;;;22.54;65.57
69198;BME280;56311;50.298;8.514;2022-08-19T08:46:53;97581.16;;;22.65;65.42
69198;BME280;56311;50.298;8.514;2022-08-19T08:49:39;97587.75;;;22.87;64.83
69198;BME280;56311;50.298;8.514;2022-08-19T08:52:11;97586.94;;;22.86;64.31
69198;BME280;56311;50.298;8.514;2022-08-19T08:54:45;97579.41;;;22.83;63.88
69198;BME280;56311;50.298;8.514;2022-08-19T08:57:25;97580.59;;;23.13;63.86
69198;BME280;56311;50.298;8.514;2022-08-19T09:00:09;97585.66;;;23.41;62.72
69198;BME280;56311;50.298;8.514;2022-08-19T09:02:43;97593.13;;;23.37;62.65
69198;BME280;56311;50.298;8.514;2022-08-19T09:05:20;97590.09;;;23.91;60.83
69198;BME280;56311;50.298;8.514;2022-08-19T09:07:57;97588.34;;;23.68;61.48
69198;BME280;56311;50.298;8.514;2022-08-19T09:10:37;97580.44;;;24.11;61.39
69198;BME280;56311;50.298;8.514;2022-08-19T09:13:17;97586.28;;;23.99;60.56
69198;BME280;56311;50.298;8.514;2022-08-19T09:15:54;97583.66;;;23.76;61.20
69198;BME280;56311;50.298;8.514;2022-08-19T09:18:25;97583.31;;;23.81;60.54
69198;BME280;56311;50.298;8.514;2022-08-19T09:20:57;97581.56;;;23.99;58.88
69198;BME280;56311;50.298;8.514;2022-08-19T09:23:25;97582.91;;;23.82;58.84
69198;BME280;56311;50.298;8.514;2022-08-19T09:25:54;97572.66;;;23.79;58.89
69198;BME280;56311;50.298;8.514;2022-08-19T09:28:25;97571.03;;;24.20;57.50
69198;BME280;56311;50.298;8.514;2022-08-19T09:30:54;97567.16;;;24.28;57.86
69198;BME280;56311;50.298;8.514;2022-08-19T09:33:23;97574.13;;;23.69;58.83
69198;BME280;56311;50.298;8.514;2022-08-19T09:36:04;97562.41;;;23.83;59.29
69198;BME280;56311;50.298;8.514;2022-08-19T09:38:36;97563.59;;;23.79;59.95
69198;BME280;56311;50.298;8.514;2022-08-19T09:41:11;97557.75;;;24.40;58.14
69198;BME280;56311;50.298;8.514;2022-08-19T09:43:43;97564.97;;;24.52;56.17
69198;BME280;56311;50.298;8.514;2022-08-19T09:46:14;97555.06;;;24.51;54.80
69198;BME280;56311;50.298;8.514;2022-08-19T09:48:44;97551.31;;;24.18;55.48
69198;BME280;56311;50.298;8.514;2022-08-19T09:51:18;97548.94;;;24.20;55.30
69198;BME280;56311;50.298;8.514;2022-08-19T09:53:50;97541.16;;;24.36;55.18
69198;BME280;56311;50.298;8.514;2022-08-19T09:56:21;97538.25;;;24.74;54.20
69198;BME280;56311;50.298;8.514;2022-08-19T09:58:50;97539.19;;;25.10;53.60
69198;BME280;56311;50.298;8.514;2022-08-19T10:01:19;97548.25;;;24.34;56.20
69198;BME280;56311;50.298;8.514;2022-08-19T10:03:50;97550.53;;;24.21;57.00
69198;BME280;56311;50.298;8.514;2022-08-19T10:06:22;97555.44;;;24.45;56.20
69198;BME280;56311;50.298;8.514;2022-08-19T10:09:11;97549.91;;;24.45;56.32
69198;BME280;56311;50.298;8.514;2022-08-19T10:11:40;97544.78;;;24.47;54.06
69198;BME280;56311;50.298;8.514;2022-08-19T10:14:20;97542.91;;;24.62;54.08
69198;BME280;56311;50.298;8.514;2022-08-19T10:16:51;97540.69;;;24.93;53.44
69198;BME280;56311;50.298;8.514;2022-08-19T10:19:19;97535.69;;;25.35;52.82
69198;BME280;56311;50.298;8.514;2022-08-19T10:21:53;62402.38;;;-147.88;100.00
69198;BME280;56311;50.298;8.514;2022-08-19T10:24:26;97536.22;;;26.24;50.43
69198;BME280;56311;50.298;8.514;2022-08-19T10:26:55;97532.66;;;26.24;50.39
69198;BME280;56311;50.298;8.514;2022-08-19T10:29:25;97535.78;;;25.61;51.45
69198;BME280;56311;50.298;8.514;2022-08-19T10:31:58;97535.78;;;25.61;51.45
69198;BME280;56311;50.298;8.514;2022-08-19T10:34:30;97541.31;;;25.53;52.13
69198;BME280;56311;50.298;8.514;2022-08-19T10:36:59;97539.75;;;25.70;51.54
69198;BME280;56311;50.298;8.514;2022-08-19T10:39:37;97539.72;;;25.56;52.06
69198;BME280;56311;50.298;8.514;2022-08-19T10:42:10;97540.44;;;25.27;50.68
69198;BME280;56311;50.298;8.514;2022-08-19T10:44:40;97535.38;;;25.66;49.89
69198;BME280;56311;50.298;8.514;2022-08-19T10:47:08;97541.38;;;26.26;47.56
69198;BME280;56311;50.298;8.514;2022-08-19T10:49:50;97535.03;;;26.18;47.37
69198;BME280;56311;50.298;8.514;2022-08-19T10:52:40;97545.63;;;26.74;47.23
69198;BME280;56311;50.298;8.514;2022-08-19T10:55:16;97551.25;;;26.30;48.26
69198;BME280;56311;50.298;8.514;2022-08-19T10:58:03;97538.56;;;25.64;48.92
69198;BME280;56311;50.298;8.514;2022-08-19T11:00:32;97543.09;;;24.95;49.75
69198;BME280;56311;50.298;8.514;2022-08-19T11:03:00;97539.66;;;24.50;49.56
69198;BME280;56311;50.298;8.514;2022-08-19T11:05:28;97536.09;;;25.34;47.59
69198;BME280;56311;50.298;8.514;2022-08-19T11:08:05;97534.66;;;26.09;45.95
69198;BME280;56311;50.298;8.514;2022-08-19T11:10:50;97529.44;;;26.47;44.04
69198;BME280;56311;50.298;8.514;2022-08-19T11:13:19;97526.53;;;26.97;43.62
69198;BME280;56311;50.298;8.514;2022-08-19T11:15:47;97525.91;;;26.03;44.95
69198;BME280;56311;50.298;8.514;2022-08-19T11:18:23;97525.91;;;26.03;44.95
69198;BME280;56311;50.298;8.514;2022-08-19T11:20:51;97520.16;;;24.98;47.43
69198;BME280;56311;50.298;8.514;2022-08-19T11:23:21;97516.59;;;24.98;47.43
69198;BME280;56311;50.298;8.514;2022-08-19T11:25:49;97515.63;;;25.89;44.78
69198;BME280;56311;50.298;8.514;2022-08-19T11:28:17;97520.69;;;26.66;43.54
69198;BME280;56311;50.298;8.514;2022-08-19T11:30:45;97512.97;;;27.14;42.17
69198;BME280;56311;50.298;8.514;2022-08-19T11:33:14;97511.13;;;27.60;42.01
69198;BME280;56311;50.298;8.514;2022-08-19T11:35:43;97499.72;;;27.47;42.48
69198;BME280;56311;50.298;8.514;2022-08-19T11:38:12;97505.56;;;26.93;42.83
69198;BME280;56311;50.298;8.514;2022-08-19T11:40:44;97499.38;;;26.16;43.79
69198;BME280;56311;50.298;8.514;2022-08-19T11:43:12;97488.13;;;26.89;42.53
69198;BME280;56311;50.298;8.514;2022-08-19T11:45:41;97475.78;;;26.97;41.51
69198;BME280;56311;50.298;8.514;2022-08-19T11:48:10;97472.56;;;27.06;41.48
69198;BME280;56311;50.298;8.514;2022-08-19T11:50:38;97464.28;;;27.62;41.25
69198;BME280;56311;50.298;8.514;2022-08-19T11:53:09;97466.34;;;28.00;40.85
69198;BME280;56311;50.298;8.514;2022-08-19T11:55:38;97462.44;;;27.93;39.58
69198;BME280;56311;50.298;8.514;2022-08-19T11:58:12;97471.06;;;26.87;41.32
69198;BME280;56311;50.298;8.514;2022-08-19T12:00:45;97471.66;;;25.98;42.31
69198;BME280;56311;50.298;8.514;2022-08-19T12:03:13;97471.19;;;26.50;42.85
69198;BME280;56311;50.298;8.514;2022-08-19T12:05:41;97462.09;;;27.35;41.19
69198;BME280;56311;50.298;8.514;2022-08-19T12:08:09;97449.38;;;27.41;40.49
69198;BME280;56311;50.298;8.514;2022-08-19T12:10:40;97465.06;;;27.62;39.34
69198;BME280;56311;50.298;8.514;2022-08-19T12:13:11;97464.81;;;27.91;39.16
69198;BME280;56311;50.298;8.514;2022-08-19T12:15:42;97465.31;;;28.63;38.29
69198;BME280;56311;50.298;8.514;2022-08-19T12:18:12;97457.28;;;28.68;37.62
69198;BME280;56311;50.298;8.514;2022-08-19T12:20:42;97466.06;;;28.32;37.92
69198;BME280;56311;50.298;8.514;2022-08-19T12:23:10;97472.53;;;27.09;38.92
69198;BME280;56311;50.298;8.514;2022-08-19T12:25:42;97482.25;;;26.54;40.14
69198;BME280;56311;50.298;8.514;2022-08-19T12:28:19;97475.59;;;26.33;41.37
69198;BME280;56311;50.298;8.514;2022-08-19T12:30:48;97478.56;;;26.97;40.40
69198;BME280;56311;50.298;8.514;2022-08-19T12:33:18;97466.31;;;28.07;37.66
69198;BME280;56311;50.298;8.514;2022-08-19T12:35:46;97460.22;;;27.74;38.45
69198;BME280;56311;50.298;8.514;2022-08-19T12:38:14;97467.59;;;27.46;38.64
69198;BME280;56311;50.298;8.514;2022-08-19T12:40:45;97471.50;;;26.70;40.25
69198;BME280;56311;50.298;8.514;2022-08-19T12:43:15;97472.31;;;26.71;40.49
69198;BME280;56311;50.298;8.514;2022-08-19T12:45:44;97470.34;;;26.75;41.09
69198;BME280;56311;50.298;8.514;2022-08-19T12:48:13;97461.22;;;26.67;40.86
69198;BME280;56311;50.298;8.514;2022-08-19T12:51:05;97450.53;;;27.44;39.67
69198;BME280;56311;50.298;8.514;2022-08-19T12:53:33;97453.63;;;26.90;40.40
69198;BME280;56311;50.298;8.514;2022-08-19T12:56:06;97462.53;;;26.37;41.07
69198;BME280;56311;50.298;8.514;2022-08-19T12:58:38;97458.56;;;26.35;40.44
69198;BME280;56311;50.298;8.514;2022-08-19T13:01:17;97456.31;;;27.04;38.76
69198;BME280;56311;50.298;8.514;2022-08-19T13:03:50;97445.22;;;27.68;38.00
69198;BME280;56311;50.298;8.514;2022-08-19T13:06:21;97444.28;;;27.82;37.63
69198;BME280;56311;50.298;8.514;2022-08-19T13:08:51;97449.31;;;28.36;36.80
69198;BME280;56311;50.298;8.514;2022-08-19T13:11:26;97440.31;;;28.94;35.80
69198;BME280;56311;50.298;8.514;2022-08-19T13:13:55;97442.31;;;29.20;34.92
69198;BME280;56311;50.298;8.514;2022-08-19T13:16:26;97439.03;;;27.91;36.25
69198;BME280;56311;50.298;8.514;2022-08-19T13:18:56;97447.75;;;27.47;37.44
69198;BME280;56311;50.298;8.514;2022-08-19T13:21:27;97454.72;;;27.07;38.18
69198;BME280;56311;50.298;8.514;2022-08-19T13:23:58;97448.91;;;26.72;38.29